Sioux City, IA

8:06 AM CST en Enero 22, 2017 (GMT -0600)
NW South Sioux City | | Change Station

Alt 1093 ft 42.49 °N, 96.42 °W | Updated 36 seconds ago

Nublado
Nublado
32.2 ° F
Sensación térmica 26 ° F
N
6.0
Viento Variable Viento desde Oeste

Hoy
Alta -- | Baja -- ° F
--% Posibilidad de precipitaciones
Ayer
Alta -- | Baja -- ° F
Precip. -- pul
Presión 29.73 pul
Visibilidad 8.0 Millas
Nubes Nubes dispersas 1700 ft
Nublado 3700 ft
Vientos helados 26 ° F
Punto de rocío 30 ° F
Humedad 91%
Precipitaciones 0.00 pul
Espesor de la nieve No disponible.
7:48 AM 5:26 PM
Creciente menguante, 26% visible
SPECI KSUX 221403Z 32012KT 8SM SCT017 OVC037 01/M01 A2973 RMK AO2 T00111011
Presión 29.73 pul
Visibilidad 8.0 Millas
Nubes Nubes dispersas 1700 ft
Nublado 3700 ft
Vientos helados 26 ° F
Punto de rocío 30 ° F
Humedad 91%
Precipitaciones 0.00 pul
Espesor de la nieve No disponible.
7:48 AM 5:26 PM
Creciente menguante, 26% visible
SPECI KSUX 221403Z 32012KT 8SM SCT017 OVC037 01/M01 A2973 RMK AO2 T00111011

Get Your Daily Forecast Email!

Thanks for signing up!

Be on the lookout for a verification email in your inbox.

You'll start receiving the daily forecast at 8 AM.

×

10-Day Weather Forecast

Almanac

Astronomía

Jan. 22, 2017 Salida Puesta
Hora real
Crepúsculo civil
Crepúsculo náutico
Crepúsculo astronómico
Luna
Horas de luz
Horas de luz
Tomorrow will be .
, % of the Moon is Illuminated

Extremos de hoy

Máximos del estado Bajos del estado

Community

WunderPhotos

Upload Photos

1,962,540 ¡fotos cargadas!

WunderBlog® & News

Nearby

Calidad del aire

  Calidad del aire Índice AQ Contaminante
Not available.

Grosos de nieve

Estación Profundido Altura

Actividad de terremotos

Ciudad Distance Mag. Tiempo y dato
Magnitud mínima muestra es 2,5.

Temperaturas de aguas costeras

Lugar Temperatura

Stations

Estaciones meteorológicas cercanas

Ubicación de la estación Temp. Vientos helados Punto de rocío Humedad Viento Precip. Alt Actualizado Tipo
                   

Watches & Warnings

There are currently no watches in effect.